Time;durP1;ratioP1;P1;durP2;ratioP2;P2;SDS_P1;SDS_P2;PMS_P1;PMS_P2;Temp;Humidity;BMP_temperature;BMP_pressure;BME280_temperature;BME280_humidity;BME280_pressure;Samples;Min_cycle;Max_cycle;Signal;HPM_P1;HPM_P2
2022/05/08 00:00:55;;;;;;;48.50;29.40;;;;;11.00;102043.00;;;;10423170;28;20219;-80
2022/05/08 00:05:59;;;;;;;49.03;29.10;;;;;10.90;102032.00;;;;10443643;28;20842;-80
2022/05/08 00:11:01;;;;;;;47.00;28.53;;;;;10.90;102034.00;;;;10467698;28;20190;-80
2022/05/08 00:16:03;;;;;;;44.17;26.50;;;;;10.90;102037.00;;;;10451151;28;20614;-79
2022/05/08 00:21:06;;;;;;;38.90;24.67;;;;;10.90;102032.00;;;;10451815;28;20197;-80
2022/05/08 00:26:08;;;;;;;32.27;21.37;;;;;10.90;102039.00;;;;10401707;28;20219;-79
2022/05/08 00:31:11;;;;;;;37.10;22.03;;;;;10.90;102046.00;;;;10392058;28;20210;-80
2022/05/08 00:36:13;;;;;;;31.10;20.17;;;;;10.90;102047.00;;;;10411618;28;20230;-80
2022/05/08 00:41:15;;;;;;;32.90;20.60;;;;;10.80;102045.00;;;;10427257;28;20198;-80
2022/05/08 00:46:17;;;;;;;29.80;19.10;;;;;10.70;102047.00;;;;10427956;28;20217;-80
2022/05/08 00:51:24;;;;;;;30.90;18.00;;;;;10.60;102051.00;;;;10407419;28;20248;-79
2022/05/08 00:56:26;;;;;;;25.00;16.87;;;;;10.60;102053.00;;;;10402580;28;20288;-79
2022/05/08 01:01:28;;;;;;;26.67;16.73;;;;;10.60;102056.00;;;;10433376;28;20201;-80
2022/05/08 01:06:31;;;;;;;26.40;17.07;;;;;10.50;102050.00;;;;10449814;28;20221;-79
2022/05/08 01:11:33;;;;;;;23.13;15.80;;;;;10.50;102054.00;;;;10451073;28;20698;-80
2022/05/08 01:16:35;;;;;;;21.33;14.77;;;;;10.50;102046.00;;;;10449685;28;20228;-80
2022/05/08 01:21:39;;;;;;;21.30;14.93;;;;;10.50;102046.00;;;;10444843;28;20256;-80
2022/05/08 01:26:41;;;;;;;21.33;14.67;;;;;10.50;102049.00;;;;10442199;28;20758;-80
2022/05/08 01:31:43;;;;;;;21.43;14.73;;;;;10.50;102052.00;;;;10404953;28;20198;-80
2022/05/08 01:36:45;;;;;;;21.73;13.70;;;;;10.40;102049.00;;;;10400622;28;20226;-79
2022/05/08 01:41:47;;;;;;;21.37;13.07;;;;;10.40;102051.00;;;;10384681;28;20339;-80
2022/05/08 01:48:21;;;;;;;23.87;13.77;;;;;10.40;102047.00;;;;10426189;28;20201;-78
2022/05/08 01:52:16;;;;;;;21.60;13.67;;;;;10.30;102053.00;;;;10408898;28;20205;-80
2022/05/08 01:57:18;;;;;;;18.10;13.17;;;;;10.30;102060.00;;;;10408664;28;20202;-79
2022/05/08 02:02:20;;;;;;;18.93;13.37;;;;;10.30;102061.00;;;;10403062;28;20221;-80
2022/05/08 02:07:22;;;;;;;23.87;13.20;;;;;10.40;102057.00;;;;10424077;28;20218;-79
2022/05/08 02:12:24;;;;;;;18.83;12.13;;;;;10.40;102067.00;;;;10415347;28;20688;-79
2022/05/08 02:17:26;;;;;;;17.47;11.60;;;;;10.50;102070.00;;;;10413922;28;20205;-79
2022/05/08 02:22:28;;;;;;;18.63;12.60;;;;;10.50;102076.00;;;;10406750;28;20229;-79
2022/05/08 02:27:38;;;;;;;19.37;11.33;;;;;10.50;102066.00;;;;10407521;28;20214;-79
2022/05/08 02:32:40;;;;;;;16.17;11.23;;;;;10.50;102072.00;;;;10437476;28;20252;-79
2022/05/08 02:37:42;;;;;;;16.87;11.03;;;;;10.60;102074.00;;;;10405443;28;20690;-78
2022/05/08 02:42:45;;;;;;;19.10;11.83;;;;;10.70;102074.00;;;;10422894;28;20222;-79
2022/05/08 02:47:48;;;;;;;16.43;12.67;;;;;10.90;102063.00;;;;10472552;28;20205;-79
2022/05/08 02:52:50;;;;;;;15.97;10.43;;;;;11.00;102065.00;;;;10443799;28;20652;-80
2022/05/08 03:03:14;;;;;;;13.67;10.27;;;;;11.00;102056.00;;;;10461232;28;20260;-79
2022/05/08 03:08:17;;;;;;;14.90;10.13;;;;;11.00;102055.00;;;;10414548;28;20568;-79
2022/05/08 03:13:20;;;;;;;12.70;10.30;;;;;11.10;102051.00;;;;10421723;28;20661;-80
2022/05/08 03:18:22;;;;;;;13.63;9.90;;;;;11.20;102052.00;;;;10420282;28;20230;-79
2022/05/08 03:23:24;;;;;;;12.93;9.33;;;;;11.30;102057.00;;;;10421818;28;20949;-80
2022/05/08 03:28:27;;;;;;;16.37;9.37;;;;;11.30;102054.00;;;;10404728;28;20194;-79
2022/05/08 03:33:29;;;;;;;13.13;9.57;;;;;11.30;102059.00;;;;10418746;28;20297;-79
2022/05/08 03:38:33;;;;;;;12.43;9.23;;;;;11.40;102069.00;;;;10420375;28;20209;-80
2022/05/08 03:43:36;;;;;;;14.17;9.87;;;;;11.40;102077.00;;;;10424120;28;20213;-79
2022/05/08 03:48:37;;;;;;;15.47;9.27;;;;;11.40;102070.00;;;;10414511;28;20629;-80
2022/05/08 03:53:40;;;;;;;12.73;8.80;;;;;11.30;102078.00;;;;10386252;28;20209;-80
2022/05/08 03:58:43;;;;;;;10.40;8.57;;;;;11.30;102079.00;;;;10419329;28;20236;-80
2022/05/08 04:03:45;;;;;;;13.93;8.40;;;;;11.10;102084.00;;;;10426198;28;20473;-80
2022/05/08 04:08:47;;;;;;;14.23;9.40;;;;;10.90;102087.00;;;;10427842;28;20194;-80
2022/05/08 04:13:48;;;;;;;11.83;8.57;;;;;10.80;102084.00;;;;10443252;28;20198;-79
2022/05/08 04:18:51;;;;;;;11.73;8.53;;;;;10.70;102087.00;;;;10408447;28;20202;-79
2022/05/08 04:29:14;;;;;;;14.03;9.63;;;;;10.60;102092.00;;;;10426677;28;20609;-80
2022/05/08 04:34:15;;;;;;;14.77;9.43;;;;;10.60;102101.00;;;;10386466;28;20569;-79
2022/05/08 04:39:17;;;;;;;16.93;9.90;;;;;10.70;102098.00;;;;10384538;28;20195;-80
2022/05/08 04:44:19;;;;;;;17.63;10.67;;;;;10.70;102107.00;;;;10397585;28;20243;-79
2022/05/08 04:49:21;;;;;;;18.83;11.17;;;;;10.90;102117.00;;;;10401022;28;20259;-80
2022/05/08 04:54:24;;;;;;;15.67;11.13;;;;;11.00;102122.00;;;;10399912;28;20650;-79
2022/05/08 04:59:26;;;;;;;19.60;12.00;;;;;11.20;102116.00;;;;10419752;28;20690;-79
2022/05/08 05:04:28;;;;;;;19.00;11.17;;;;;11.40;102120.00;;;;10465569;28;20221;-79
2022/05/08 05:09:30;;;;;;;15.80;11.80;;;;;11.60;102126.00;;;;10465704;28;20228;-79
2022/05/08 05:14:32;;;;;;;18.23;11.43;;;;;11.80;102131.00;;;;10463225;28;20284;-80
2022/05/08 05:19:34;;;;;;;19.43;12.43;;;;;11.90;102138.00;;;;10414010;28;20213;-79
2022/05/08 05:24:36;;;;;;;17.20;11.43;;;;;12.00;102140.00;;;;10423270;28;20256;-80
2022/05/08 05:29:38;;;;;;;19.97;12.33;;;;;12.00;102136.00;;;;10423099;28;20232;-79
2022/05/08 05:34:41;;;;;;;16.93;11.73;;;;;12.10;102145.00;;;;10439688;28;20205;-78
2022/05/08 05:39:42;;;;;;;14.57;12.07;;;;;12.10;102159.00;;;;10423151;28;20190;-79
2022/05/08 05:44:44;;;;;;;16.90;11.77;;;;;12.20;102160.00;;;;10412584;28;20233;-78
2022/05/08 05:49:46;;;;;;;14.77;11.87;;;;;12.50;102160.00;;;;10438733;28;20438;-80
2022/05/08 05:54:48;;;;;;;21.43;11.70;;;;;13.10;102170.00;;;;10422421;28;20206;-80
2022/05/08 05:59:54;;;;;;;19.17;12.40;;;;;14.80;102178.00;;;;10406509;28;20206;-79
2022/05/08 06:04:56;;;;;;;14.60;10.63;;;;;15.80;102184.00;;;;10420809;28;20222;-80
2022/05/08 06:10:00;;;;;;;13.30;9.63;;;;;16.30;102191.00;;;;10422076;28;20197;-79
2022/05/08 06:15:05;;;;;;;13.70;9.10;;;;;16.10;102204.00;;;;10406271;28;20231;-79
2022/05/08 06:20:07;;;;;;;17.43;9.27;;;;;16.10;102208.00;;;;10436566;28;20198;-79
2022/05/08 06:25:09;;;;;;;14.97;8.83;;;;;15.60;102220.00;;;;10421404;28;20226;-79
2022/05/08 06:30:12;;;;;;;13.40;9.07;;;;;15.60;102218.00;;;;10403466;28;20201;-80
2022/05/08 06:35:14;;;;;;;11.10;8.57;;;;;15.40;102226.00;;;;10418414;28;20233;-79
2022/05/08 06:40:16;;;;;;;13.93;8.57;;;;;15.30;102226.00;;;;10419610;28;20779;-79
2022/05/08 06:45:23;;;;;;;13.50;9.33;;;;;15.10;102239.00;;;;10435353;28;20213;-79
2022/05/08 06:50:25;;;;;;;14.27;10.10;;;;;15.00;102244.00;;;;10444215;28;20240;-80
2022/05/08 06:55:27;;;;;;;11.77;8.60;;;;;14.90;102247.00;;;;10446602;28;20216;-78
2022/05/08 07:05:53;;;;;;;14.77;9.87;;;;;14.80;102251.00;;;;10494454;28;20225;-79
2022/05/08 07:10:55;;;;;;;14.97;9.07;;;;;14.90;102242.00;;;;10444992;28;20197;-78
2022/05/08 07:15:58;;;;;;;13.77;8.50;;;;;15.10;102250.00;;;;10390447;28;20203;-80
2022/05/08 07:21:00;;;;;;;14.57;9.67;;;;;15.30;102255.00;;;;10411260;28;20292;-79
2022/05/08 07:26:02;;;;;;;13.13;8.80;;;;;15.70;102252.00;;;;10402206;28;20265;-80
2022/05/08 07:31:04;;;;;;;14.10;8.33;;;;;15.90;102249.00;;;;10452158;28;20198;-80
2022/05/08 07:36:13;;;;;;;14.97;8.07;;;;;16.20;102260.00;;;;10419276;28;20200;-79
2022/05/08 07:41:16;;;;;;;12.77;8.17;;;;;16.70;102262.00;;;;10419270;28;20209;-80
2022/05/08 07:46:18;;;;;;;16.63;8.77;;;;;17.40;102248.00;;;;10418790;28;20324;-79
2022/05/08 07:51:20;;;;;;;13.35;8.15;;;;;17.00;102262.00;;;;10369175;28;20293;-79
2022/05/08 07:56:22;;;;;;;12.93;7.43;;;;;17.10;102262.00;;;;10377207;28;20810;-80
2022/05/08 08:01:24;;;;;;;16.58;7.88;;;;;17.60;102264.00;;;;10395188;28;20688;-79
2022/05/08 08:06:46;;;;;;;16.17;7.38;;;;;18.40;102268.00;;;;10421185;28;20226;-79
2022/05/08 08:11:48;;;;;;;13.60;7.50;;;;;18.90;102263.00;;;;10403425;28;20676;-81
2022/05/08 08:16:50;;;;;;;15.43;8.00;;;;;19.40;102263.00;;;;10402222;28;20297;-79
2022/05/08 08:21:52;;;;;;;13.52;7.65;;;;;19.80;102275.00;;;;10373190;28;20213;-80
2022/05/08 08:26:54;;;;;;;13.75;6.45;;;;;20.20;102276.00;;;;10418498;28;20226;-80
2022/05/08 08:31:56;;;;;;;14.80;7.40;;;;;20.50;102278.00;;;;10443309;28;20495;-80
2022/05/08 08:36:58;;;;;;;15.10;7.32;;;;;20.90;102268.00;;;;10425710;28;20419;-80
2022/05/08 08:42:07;;;;;;;11.13;7.15;;;;;21.30;102267.00;;;;10442827;28;20202;-80
2022/05/08 08:52:34;;;;;;;10.45;6.03;;;;;21.80;102265.00;;;;10425864;28;20202;-80
2022/05/08 08:57:36;;;;;;;13.15;6.43;;;;;22.10;102262.00;;;;10425730;28;20252;-80
2022/05/08 09:02:38;;;;;;;10.02;5.57;;;;;22.10;102257.00;;;;10425108;28;20301;-80
2022/05/08 09:07:42;;;;;;;9.02;4.65;;;;;22.20;102254.00;;;;10399935;28;20241;-80
2022/05/08 09:13:01;;;;;;;8.10;4.22;;;;;22.40;102249.00;;;;10398965;28;20202;-79
2022/05/08 09:18:11;;;;;;;9.73;4.05;;;;;22.70;102253.00;;;;10398266;28;20649;-81
2022/05/08 09:23:21;;;;;;;10.68;3.85;;;;;23.00;102257.00;;;;10415271;28;20205;-80
2022/05/08 09:28:28;;;;;;;8.75;4.40;;;;;23.10;102256.00;;;;10399828;28;20301;-80
2022/05/08 09:33:41;;;;;;;10.25;3.97;;;;;23.50;102243.00;;;;10442277;28;20305;-80
2022/05/08 09:38:48;;;;;;;7.75;3.60;;;;;23.60;102251.00;;;;10439089;28;20654;-81
2022/05/08 09:43:51;;;;;;;10.60;4.05;;;;;23.80;102252.00;;;;10426415;28;20232;-80
2022/05/08 09:48:57;;;;;;;7.90;3.78;;;;;24.40;102241.00;;;;10481270;28;20190;-80
2022/05/08 09:54:00;;;;;;;6.15;3.22;;;;;24.30;102245.00;;;;10403824;28;20732;-81
2022/05/08 09:59:06;;;;;;;9.70;3.40;;;;;24.40;102242.00;;;;10365156;28;20209;-81
2022/05/08 10:04:08;;;;;;;8.68;3.67;;;;;24.40;102243.00;;;;10421254;28;20305;-79
2022/05/08 10:14:35;;;;;;;11.65;3.90;;;;;24.70;102237.00;;;;10421926;28;20202;-80
2022/05/08 10:19:43;;;;;;;9.27;2.47;;;;;25.00;102237.00;;;;10438325;28;20548;-79
2022/05/08 10:24:48;;;;;;;9.80;3.28;;;;;25.00;102234.00;;;;10421868;28;20214;-80
2022/05/08 10:29:50;;;;;;;5.72;2.70;;;;;25.10;102229.00;;;;10456415;28;20644;-80
2022/05/08 10:35:08;;;;;;;7.53;2.70;;;;;25.40;102229.00;;;;10436681;28;20286;-80
2022/05/08 10:40:22;;;;;;;10.90;3.35;;;;;25.50;102236.00;;;;10436471;28;20201;-80
2022/05/08 10:45:31;;;;;;;7.43;3.00;;;;;25.40;102224.00;;;;10418127;28;20263;-80
2022/05/08 10:50:34;;;;;;;8.05;3.08;;;;;25.60;102227.00;;;;10453092;28;20201;-79
2022/05/08 10:55:36;;;;;;;5.32;2.40;;;;;26.00;102219.00;;;;10422201;28;20199;-81
2022/05/08 11:00:39;;;;;;;7.32;3.17;;;;;26.30;102219.00;;;;10412086;28;20200;-80
2022/05/08 11:05:41;;;;;;;7.70;2.47;;;;;26.20;102231.00;;;;10446160;28;20229;-80
2022/05/08 11:10:43;;;;;;;6.25;2.55;;;;;26.20;102225.00;;;;10435909;28;20202;-81
2022/05/08 11:15:46;;;;;;;6.10;2.70;;;;;26.40;102207.00;;;;10434706;28;20194;-80
2022/05/08 11:20:57;;;;;;;7.80;3.20;;;;;26.70;102214.00;;;;10418279;28;20374;-79
2022/05/08 11:26:11;;;;;;;3.75;1.60;;;;;26.60;102220.00;;;;10449781;28;20231;-80
2022/05/08 11:31:15;;;;;;;7.03;2.28;;;;;27.00;102200.00;;;;10432391;28;20209;-80
2022/05/08 11:36:29;;;;;;;4.38;1.85;;;;;26.90;102204.00;;;;10396181;28;20202;-80
2022/05/08 11:41:36;;;;;;;5.57;1.98;;;;;26.70;102200.00;;;;10433912;28;20336;-81
2022/05/08 11:46:45;;;;;;;3.80;1.92;;;;;26.70;102189.00;;;;10415638;28;20221;-80
2022/05/08 11:52:01;;;;;;;7.18;2.05;;;;;26.90;102187.00;;;;10375400;28;20625;-80
2022/05/08 11:57:18;;;;;;;5.60;2.00;;;;;26.70;102182.00;;;;10387390;28;20210;-80
2022/05/08 12:02:37;;;;;;;3.60;1.80;;;;;27.10;102187.00;;;;10371459;28;20803;-80
2022/05/08 12:07:41;;;;;;;5.95;2.10;;;;;27.00;102179.00;;;;10409347;28;20272;-80
2022/05/08 12:12:44;;;;;;;5.25;2.17;;;;;27.00;102177.00;;;;10424517;28;20203;-79
2022/05/08 12:17:46;;;;;;;4.10;2.20;;;;;27.00;102171.00;;;;10457314;28;20194;-81
2022/05/08 12:23:06;;;;;;;5.47;1.73;;;;;27.10;102164.00;;;;10424305;28;20341;-79
2022/05/08 12:28:10;;;;;;;7.70;1.77;;;;;26.80;102161.00;;;;10434057;28;20229;-80
2022/05/08 12:33:12;;;;;;;8.07;2.45;;;;;27.00;102155.00;;;;10400748;28;20273;-81
2022/05/08 12:38:14;;;;;;;5.70;1.88;;;;;27.00;102147.00;;;;10403049;28;20229;-81
2022/05/08 12:43:16;;;;;;;5.95;1.80;;;;;26.90;102149.00;;;;10408963;28;20248;-79
2022/05/08 12:48:21;;;;;;;6.70;2.30;;;;;26.80;102149.00;;;;10467121;28;20221;-80
2022/05/08 12:53:23;;;;;;;7.30;2.33;;;;;27.20;102143.00;;;;10442160;28;20285;-79
2022/05/08 13:03:45;;;;;;;3.95;2.17;;;;;27.30;102156.00;;;;10414494;28;20271;-79
2022/05/08 13:08:47;;;;;;;10.25;2.42;;;;;27.20;102135.00;;;;10440116;28;20204;-81
2022/05/08 13:13:49;;;;;;;6.07;1.92;;;;;27.50;102128.00;;;;10398805;28;20190;-80
2022/05/08 13:18:51;;;;;;;8.25;1.83;;;;;28.40;102129.00;;;;10406642;28;20725;-79
2022/05/08 13:23:56;;;;;;;7.68;2.20;;;;;30.50;102116.00;;;;10430804;28;20593;-80
2022/05/08 13:28:59;;;;;;;4.60;1.90;;;;;31.60;102111.00;;;;10414208;28;20201;-80
2022/05/08 13:34:01;;;;;;;6.53;2.42;;;;;32.90;102101.00;;;;10415773;28;20742;-81
2022/05/08 13:39:04;;;;;;;5.10;1.90;;;;;33.50;102105.00;;;;10385484;28;20198;-80
2022/05/08 13:44:06;;;;;;;7.85;2.08;;;;;33.90;102100.00;;;;10427624;28;20217;-80
2022/05/08 13:49:09;;;;;;;9.30;2.05;;;;;33.80;102103.00;;;;10446719;28;20292;-80
2022/05/08 13:54:11;;;;;;;4.63;1.58;;;;;33.90;102100.00;;;;10480768;28;20204;-80
2022/05/08 13:59:13;;;;;;;5.05;1.73;;;;;34.80;102094.00;;;;10448661;28;20209;-80
2022/05/08 14:04:15;;;;;;;4.43;1.70;;;;;34.80;102095.00;;;;10404832;28;20271;-79
2022/05/08 14:09:17;;;;;;;4.43;1.60;;;;;35.20;102095.00;;;;10430980;28;20221;-79
2022/05/08 14:14:26;;;;;;;6.43;1.73;;;;;34.50;102088.00;;;;10426685;28;20206;-80
2022/05/08 14:19:34;;;;;;;4.35;1.80;;;;;32.90;102101.00;;;;10403611;28;20289;-81
2022/05/08 14:24:36;;;;;;;3.97;1.40;;;;;33.40;102080.00;;;;10401345;28;20276;-80
2022/05/08 14:29:38;;;;;;;3.83;1.65;;;;;34.90;102077.00;;;;10387930;28;20199;-81
2022/05/08 14:40:02;;;;;;;3.75;1.73;;;;;36.00;102065.00;;;;10419475;28;20205;-80
2022/05/08 14:45:05;;;;;;;6.93;1.77;;;;;36.10;102057.00;;;;10417627;28;20238;-81
2022/05/08 14:50:08;;;;;;;4.57;1.85;;;;;36.60;102058.00;;;;10474924;28;20268;-80
2022/05/08 14:55:10;;;;;;;4.82;1.52;;;;;36.10;102050.00;;;;10455409;28;20251;-80
2022/05/08 15:00:12;;;;;;;5.40;1.80;;;;;35.40;102070.00;;;;10418035;28;20236;-80
2022/05/08 15:05:14;;;;;;;4.35;1.48;;;;;31.00;102060.00;;;;10402554;28;20218;-80
2022/05/08 15:10:16;;;;;;;5.28;2.17;;;;;30.20;102034.00;;;;10443041;28;20197;-77
2022/05/08 15:15:18;;;;;;;4.80;1.45;;;;;31.00;102046.00;;;;10437249;28;20486;-78
2022/05/08 15:20:25;;;;;;;7.28;2.00;;;;;33.10;102045.00;;;;10379642;28;20202;-81
2022/05/08 15:25:33;;;;;;;3.28;1.75;;;;;28.30;102042.00;;;;10394134;28;20219;-81
2022/05/08 15:30:36;;;;;;;6.70;1.77;;;;;28.40;102030.00;;;;10394635;28;20232;-80
2022/05/08 15:35:38;;;;;;;4.40;1.80;;;;;30.70;102029.00;;;;10416363;28;20202;-82
2022/05/08 15:40:41;;;;;;;5.57;1.58;;;;;34.00;102013.00;;;;10418508;28;20690;-82
2022/05/08 15:45:44;;;;;;;6.20;2.22;;;;;34.00;102026.00;;;;10433893;28;20293;-81
2022/05/08 15:50:45;;;;;;;6.95;2.13;;;;;34.00;102020.00;;;;10380838;28;20648;-82
2022/05/08 15:55:47;;;;;;;4.20;1.80;;;;;30.00;102021.00;;;;10400916;28;20264;-82
2022/05/08 16:00:51;;;;;;;2.75;1.45;;;;;28.30;102028.00;;;;10441342;28;20225;-81
2022/05/08 16:05:53;;;;;;;3.08;1.42;;;;;25.70;102027.00;;;;10419427;28;20236;-81
2022/05/08 16:11:16;;;;;;;4.78;1.60;;;;;24.20;102024.00;;;;10399507;28;20759;-80
2022/05/08 16:27:00;;;;;;;6.95;1.50;;;;;22.10;102015.00;;;;10439176;28;20224;-79
2022/05/08 16:32:02;;;;;;;3.92;1.50;;;;;21.70;102020.00;;;;10458711;28;20255;-78
2022/05/08 16:37:04;;;;;;;4.60;1.40;;;;;21.40;102022.00;;;;10425079;28;20198;-80
2022/05/08 16:42:06;;;;;;;6.68;2.00;;;;;21.30;102017.00;;;;10417939;28;20309;-80
2022/05/08 16:47:08;;;;;;;8.40;1.70;;;;;21.20;102027.00;;;;10445354;28;20217;-81
2022/05/08 16:52:10;;;;;;;7.65;1.35;;;;;21.10;102022.00;;;;10403478;28;20206;-79
2022/05/08 16:57:12;;;;;;;5.00;1.63;;;;;21.00;102025.00;;;;10380041;28;20202;-80
2022/05/08 17:02:14;;;;;;;4.97;1.65;;;;;20.80;102024.00;;;;10431466;28;20202;-80
2022/05/08 17:07:17;;;;;;;4.13;1.45;;;;;20.70;102013.00;;;;10459629;28;20230;-80
2022/05/08 17:12:20;;;;;;;6.07;1.67;;;;;20.60;102010.00;;;;10406388;28;20209;-80
2022/05/08 17:17:22;;;;;;;5.43;1.58;;;;;20.50;102021.00;;;;10429303;28;20238;-79
2022/05/08 17:22:24;;;;;;;5.68;1.63;;;;;20.30;102022.00;;;;10420389;28;20259;-77
2022/05/08 17:32:48;;;;;;;6.97;1.50;;;;;20.10;102010.00;;;;10423188;28;20623;-80
2022/05/08 17:37:51;;;;;;;4.28;1.85;;;;;20.00;102018.00;;;;10406681;28;20229;-80
2022/05/08 17:42:52;;;;;;;4.45;1.40;;;;;19.80;102018.00;;;;10440579;28;20653;-81
2022/05/08 17:47:54;;;;;;;3.42;1.77;;;;;19.70;102016.00;;;;10425463;28;20573;-81
2022/05/08 17:52:56;;;;;;;6.20;1.77;;;;;19.60;102017.00;;;;10397615;28;20202;-81
2022/05/08 17:57:59;;;;;;;4.60;1.55;;;;;19.40;102020.00;;;;10376081;28;20625;-81
2022/05/08 18:08:23;;;;;;;5.97;1.92;;;;;19.20;102026.00;;;;10399486;28;20214;-81
2022/05/08 18:13:26;;;;;;;2.78;1.55;;;;;19.00;102030.00;;;;10398758;28;20713;-80
2022/05/08 18:18:28;;;;;;;5.28;2.20;;;;;18.90;102025.00;;;;10398398;28;20203;-79
2022/05/08 18:23:30;;;;;;;4.65;1.70;;;;;18.70;102028.00;;;;10375968;28;20305;-80
2022/05/08 18:28:33;;;;;;;6.28;1.85;;;;;18.60;102028.00;;;;10420181;28;20225;-80
2022/05/08 18:33:36;;;;;;;5.60;2.15;;;;;18.40;102037.00;;;;10429599;28;20202;-80
2022/05/08 18:38:37;;;;;;;5.07;2.22;;;;;18.20;102039.00;;;;10380512;28;20230;-80
2022/05/08 18:43:42;;;;;;;8.65;2.20;;;;;18.00;102046.00;;;;10386284;28;20576;-80
2022/05/08 18:49:19;;;;;;;8.13;1.55;;;;;17.80;102050.00;;;;10478819;28;20221;-80
2022/05/08 18:54:07;;;;;;;5.10;1.77;;;;;17.50;102059.00;;;;10479865;28;20201;-80
2022/05/08 18:59:09;;;;;;;6.20;2.00;;;;;17.30;102056.00;;;;10409707;28;20214;-82
2022/05/08 19:04:13;;;;;;;6.63;1.75;;;;;17.10;102061.00;;;;10398934;28;20230;-82
2022/05/08 19:09:15;;;;;;;4.63;1.83;;;;;16.90;102063.00;;;;10383045;28;20234;-82
2022/05/08 19:14:17;;;;;;;4.75;1.90;;;;;16.70;102061.00;;;;10365000;28;20301;-82
2022/05/08 19:19:20;;;;;;;3.88;1.80;;;;;16.50;102069.00;;;;10380072;28;20199;-82
2022/05/08 19:24:22;;;;;;;6.80;1.77;;;;;16.30;102077.00;;;;10422247;28;20577;-79
2022/05/08 19:29:24;;;;;;;5.07;2.00;;;;;16.10;102083.00;;;;10422482;28;20280;-81
2022/05/08 19:39:46;;;;;;;5.80;2.23;;;;;15.80;102092.00;;;;10435844;28;20194;-81
2022/05/08 19:44:49;;;;;;;6.70;2.00;;;;;15.70;102095.00;;;;10382305;28;20195;-81
2022/05/08 19:49:52;;;;;;;4.03;1.73;;;;;15.50;102109.00;;;;10407152;28;20202;-80
2022/05/08 19:54:55;;;;;;;9.17;2.20;;;;;15.40;102114.00;;;;10435325;28;20194;-80
2022/05/08 19:59:58;;;;;;;3.90;1.53;;;;;15.30;102128.00;;;;10419900;28;20301;-79
2022/05/08 20:05:00;;;;;;;5.63;2.00;;;;;15.10;102122.00;;;;10379451;28;20628;-80
2022/05/08 20:10:02;;;;;;;8.20;2.10;;;;;15.00;102132.00;;;;10407678;28;20985;-79
2022/05/08 20:15:05;;;;;;;5.57;1.97;;;;;14.90;102128.00;;;;10398121;28;20640;-80
2022/05/08 20:25:29;;;;;;;10.50;2.60;;;;;14.60;102126.00;;;;10439229;28;20213;-79
2022/05/08 20:30:31;;;;;;;4.43;2.37;;;;;14.50;102132.00;;;;10412319;28;20754;-80
2022/05/08 20:35:33;;;;;;;7.43;2.30;;;;;14.40;102130.00;;;;10427467;28;20561;-80
2022/05/08 20:40:34;;;;;;;6.90;2.43;;;;;14.30;102137.00;;;;10426552;28;20724;-79
2022/05/08 20:45:36;;;;;;;7.73;2.47;;;;;14.10;102137.00;;;;10449762;28;20214;-79
2022/05/08 20:50:38;;;;;;;6.47;2.43;;;;;14.00;102146.00;;;;10422435;28;20202;-80
2022/05/08 20:55:40;;;;;;;6.83;2.57;;;;;13.90;102153.00;;;;10425870;28;20199;-79
2022/05/08 21:00:42;;;;;;;9.17;2.57;;;;;13.80;102157.00;;;;10441336;28;20210;-80
2022/05/08 21:11:05;;;;;;;7.70;3.17;;;;;13.70;102165.00;;;;10427207;28;20298;-81
2022/05/08 21:16:07;;;;;;;8.03;3.03;;;;;13.60;102155.00;;;;10425288;28;20264;-81
2022/05/08 21:21:09;;;;;;;6.60;2.73;;;;;13.50;102154.00;;;;10398764;28;20195;-81
2022/05/08 21:26:11;;;;;;;5.90;2.70;;;;;13.40;102153.00;;;;10419167;28;20213;-81
2022/05/08 21:31:13;;;;;;;8.50;2.73;;;;;13.30;102153.00;;;;10426112;28;20197;-80
2022/05/08 21:36:15;;;;;;;7.13;2.80;;;;;13.10;102163.00;;;;10424326;28;20209;-81
2022/05/08 21:41:17;;;;;;;9.13;3.40;;;;;13.00;102157.00;;;;10413043;28;20868;-80
2022/05/08 21:46:19;;;;;;;11.60;3.03;;;;;12.90;102161.00;;;;10401611;28;20214;-80
2022/05/08 21:51:21;;;;;;;11.57;3.23;;;;;12.80;102162.00;;;;10422156;28;20612;-79
2022/05/08 21:56:23;;;;;;;6.57;2.87;;;;;12.60;102173.00;;;;10391343;28;20229;-81
2022/05/08 22:01:25;;;;;;;10.00;3.00;;;;;12.50;102163.00;;;;10387690;28;20205;-80
2022/05/08 22:06:27;;;;;;;9.03;2.67;;;;;12.40;102168.00;;;;10434549;28;20329;-81
2022/05/08 22:11:29;;;;;;;8.33;3.13;;;;;12.20;102160.00;;;;10406844;28;20271;-80
2022/05/08 22:16:31;;;;;;;6.53;3.20;;;;;12.10;102169.00;;;;10445011;28;20252;-80
2022/05/08 22:21:33;;;;;;;4.93;2.70;;;;;12.00;102164.00;;;;10414119;28;20190;-81
2022/05/08 22:26:35;;;;;;;12.53;3.40;;;;;11.80;102165.00;;;;10406574;28;20226;-82
2022/05/08 22:31:37;;;;;;;9.03;3.60;;;;;11.70;102165.00;;;;10435636;28;20197;-80
2022/05/08 22:36:39;;;;;;;10.73;3.83;;;;;11.70;102175.00;;;;10446108;28;20229;-82
2022/05/08 22:41:41;;;;;;;10.30;3.20;;;;;11.60;102171.00;;;;10429047;28;20248;-81
2022/05/08 22:46:43;;;;;;;10.70;3.20;;;;;11.40;102170.00;;;;10428616;28;20300;-81
2022/05/08 22:51:45;;;;;;;8.63;3.70;;;;;11.30;102175.00;;;;10429506;28;20200;-81
2022/05/08 22:56:50;;;;;;;4.87;2.90;;;;;11.20;102172.00;;;;10407180;28;20226;-82
2022/05/08 23:01:52;;;;;;;8.43;3.60;;;;;11.10;102170.00;;;;10407756;28;20225;-82
2022/05/08 23:06:55;;;;;;;9.53;3.53;;;;;10.90;102167.00;;;;10443302;28;20264;-81
2022/05/08 23:11:57;;;;;;;7.60;3.73;;;;;10.80;102168.00;;;;10412231;28;20199;-80
2022/05/08 23:16:59;;;;;;;12.63;4.10;;;;;10.60;102172.00;;;;10387783;28;20229;-81
2022/05/08 23:22:00;;;;;;;7.93;3.50;;;;;10.50;102168.00;;;;10402632;28;20261;-80
2022/05/08 23:27:02;;;;;;;7.60;3.57;;;;;10.40;102175.00;;;;10416625;28;20589;-80
2022/05/08 23:32:05;;;;;;;7.53;3.50;;;;;10.40;102175.00;;;;10425798;28;20248;-81
2022/05/08 23:37:07;;;;;;;14.50;4.13;;;;;10.30;102167.00;;;;10426931;28;20194;-80
2022/05/08 23:42:09;;;;;;;9.60;4.30;;;;;10.20;102161.00;;;;10425967;28;20198;-81
2022/05/08 23:47:11;;;;;;;9.33;3.97;;;;;10.10;102152.00;;;;10426184;28;20210;-80
2022/05/08 23:52:13;;;;;;;7.40;3.90;;;;;9.90;102149.00;;;;10425849;28;20280;-81
2022/05/08 23:57:15;;;;;;;10.27;4.00;;;;;9.90;102152.00;;;;10459038;28;20217;-81
